sensor_id;sensor_type;location;lat;lon;timestamp;temperature;humidity
3380;DHT22;1703;51.964;7.642;2022-08-03T00:01:03;22.60;99.90
3380;DHT22;1703;51.964;7.642;2022-08-03T00:03:30;22.50;99.90
3380;DHT22;1703;51.964;7.642;2022-08-03T00:05:57;22.50;99.90
3380;DHT22;1703;51.964;7.642;2022-08-03T00:08:25;22.50;99.90
3380;DHT22;1703;51.964;7.642;2022-08-03T00:10:52;22.50;99.90
3380;DHT22;1703;51.964;7.642;2022-08-03T00:13:19;22.40;99.90
3380;DHT22;1703;51.964;7.642;2022-08-03T00:15:46;22.40;99.90
3380;DHT22;1703;51.964;7.642;2022-08-03T00:18:13;22.40;99.90
3380;DHT22;1703;51.964;7.642;2022-08-03T00:20:39;22.40;99.90
3380;DHT22;1703;51.964;7.642;2022-08-03T00:23:06;22.40;99.90
3380;DHT22;1703;51.964;7.642;2022-08-03T00:25:35;22.40;99.90
3380;DHT22;1703;51.964;7.642;2022-08-03T00:28:03;22.30;99.90
3380;DHT22;1703;51.964;7.642;2022-08-03T00:30:31;22.30;99.90
3380;DHT22;1703;51.964;7.642;2022-08-03T00:32:58;22.30;99.90
3380;DHT22;1703;51.964;7.642;2022-08-03T00:35:25;22.30;99.90
3380;DHT22;1703;51.964;7.642;2022-08-03T00:37:52;22.30;99.90
3380;DHT22;1703;51.964;7.642;2022-08-03T00:40:20;22.30;99.90
3380;DHT22;1703;51.964;7.642;2022-08-03T00:42:49;22.30;99.90
3380;DHT22;1703;51.964;7.642;2022-08-03T00:45:19;22.30;99.90
3380;DHT22;1703;51.964;7.642;2022-08-03T00:47:47;22.20;99.90
3380;DHT22;1703;51.964;7.642;2022-08-03T00:50:15;22.30;99.90
3380;DHT22;1703;51.964;7.642;2022-08-03T00:52:42;22.20;99.90
3380;DHT22;1703;51.964;7.642;2022-08-03T00:55:09;22.20;99.90
3380;DHT22;1703;51.964;7.642;2022-08-03T00:57:37;22.20;99.90
3380;DHT22;1703;51.964;7.642;2022-08-03T01:00:07;22.20;99.90
3380;DHT22;1703;51.964;7.642;2022-08-03T01:02:35;22.20;99.90
3380;DHT22;1703;51.964;7.642;2022-08-03T01:05:02;22.10;99.90
3380;DHT22;1703;51.964;7.642;2022-08-03T01:07:40;22.10;99.90
3380;DHT22;1703;51.964;7.642;2022-08-03T01:10:14;22.10;99.90
3380;DHT22;1703;51.964;7.642;2022-08-03T01:12:47;22.10;99.90
3380;DHT22;1703;51.964;7.642;2022-08-03T01:15:25;22.10;99.90
3380;DHT22;1703;51.964;7.642;2022-08-03T01:17:58;22.10;99.90
3380;DHT22;1703;51.964;7.642;2022-08-03T01:20:31;22.10;99.90
3380;DHT22;1703;51.964;7.642;2022-08-03T01:26:12;22.00;99.90
3380;DHT22;1703;51.964;7.642;2022-08-03T01:28:55;21.90;99.90
3380;DHT22;1703;51.964;7.642;2022-08-03T01:31:27;22.00;99.90
3380;DHT22;1703;51.964;7.642;2022-08-03T01:33:57;22.00;99.90
3380;DHT22;1703;51.964;7.642;2022-08-03T01:36:28;22.00;99.90
3380;DHT22;1703;51.964;7.642;2022-08-03T01:38:59;22.10;99.90
3380;DHT22;1703;51.964;7.642;2022-08-03T01:41:30;22.00;99.90
3380;DHT22;1703;51.964;7.642;2022-08-03T01:43:58;21.90;99.90
3380;DHT22;1703;51.964;7.642;2022-08-03T01:46:29;21.90;99.90
3380;DHT22;1703;51.964;7.642;2022-08-03T01:48:57;21.80;99.90
3380;DHT22;1703;51.964;7.642;2022-08-03T01:51:25;21.70;99.90
3380;DHT22;1703;51.964;7.642;2022-08-03T01:53:53;21.70;99.90
3380;DHT22;1703;51.964;7.642;2022-08-03T01:56:21;21.70;99.90
3380;DHT22;1703;51.964;7.642;2022-08-03T01:58:51;21.70;99.90
3380;DHT22;1703;51.964;7.642;2022-08-03T02:01:20;21.70;99.90
3380;DHT22;1703;51.964;7.642;2022-08-03T02:03:49;21.70;99.90
3380;DHT22;1703;51.964;7.642;2022-08-03T02:06:19;21.70;99.90
3380;DHT22;1703;51.964;7.642;2022-08-03T02:08:47;21.80;99.90
3380;DHT22;1703;51.964;7.642;2022-08-03T02:11:15;21.80;99.90
3380;DHT22;1703;51.964;7.642;2022-08-03T02:13:43;21.70;99.90
3380;DHT22;1703;51.964;7.642;2022-08-03T02:16:12;21.60;99.90
3380;DHT22;1703;51.964;7.642;2022-08-03T02:18:41;21.70;99.90
3380;DHT22;1703;51.964;7.642;2022-08-03T02:21:10;21.70;99.90
3380;DHT22;1703;51.964;7.642;2022-08-03T02:23:37;21.70;99.90
3380;DHT22;1703;51.964;7.642;2022-08-03T02:26:13;21.70;99.90
3380;DHT22;1703;51.964;7.642;2022-08-03T02:28:42;21.70;99.90
3380;DHT22;1703;51.964;7.642;2022-08-03T02:31:14;21.70;99.90
3380;DHT22;1703;51.964;7.642;2022-08-03T02:33:44;21.70;99.90
3380;DHT22;1703;51.964;7.642;2022-08-03T02:36:15;21.70;99.90
3380;DHT22;1703;51.964;7.642;2022-08-03T02:38:48;21.60;99.90
3380;DHT22;1703;51.964;7.642;2022-08-03T02:41:21;21.60;99.90
3380;DHT22;1703;51.964;7.642;2022-08-03T02:43:52;21.60;99.90
3380;DHT22;1703;51.964;7.642;2022-08-03T02:46:21;21.60;99.90
3380;DHT22;1703;51.964;7.642;2022-08-03T02:48:51;21.60;99.90
3380;DHT22;1703;51.964;7.642;2022-08-03T02:51:21;21.60;99.90
3380;DHT22;1703;51.964;7.642;2022-08-03T02:53:49;21.60;99.90
3380;DHT22;1703;51.964;7.642;2022-08-03T02:56:17;21.50;99.90
3380;DHT22;1703;51.964;7.642;2022-08-03T02:58:46;21.60;99.90
3380;DHT22;1703;51.964;7.642;2022-08-03T03:01:15;21.60;99.90
3380;DHT22;1703;51.964;7.642;2022-08-03T03:03:42;21.60;99.90
3380;DHT22;1703;51.964;7.642;2022-08-03T03:06:10;21.50;99.90
3380;DHT22;1703;51.964;7.642;2022-08-03T03:08:39;21.50;99.90
3380;DHT22;1703;51.964;7.642;2022-08-03T03:11:06;21.50;99.90
3380;DHT22;1703;51.964;7.642;2022-08-03T03:13:34;21.50;99.90
3380;DHT22;1703;51.964;7.642;2022-08-03T03:16:05;21.50;99.90
3380;DHT22;1703;51.964;7.642;2022-08-03T03:18:33;21.50;99.90
3380;DHT22;1703;51.964;7.642;2022-08-03T03:21:02;21.50;99.90
3380;DHT22;1703;51.964;7.642;2022-08-03T03:23:30;21.50;99.90
3380;DHT22;1703;51.964;7.642;2022-08-03T03:25:59;21.50;99.90
3380;DHT22;1703;51.964;7.642;2022-08-03T03:28:26;21.50;99.90
3380;DHT22;1703;51.964;7.642;2022-08-03T03:30:54;21.40;99.90
3380;DHT22;1703;51.964;7.642;2022-08-03T03:33:21;21.40;99.90
3380;DHT22;1703;51.964;7.642;2022-08-03T03:35:48;21.30;99.90
3380;DHT22;1703;51.964;7.642;2022-08-03T03:40:48;21.20;99.90
3380;DHT22;1703;51.964;7.642;2022-08-03T03:43:16;21.20;99.90
3380;DHT22;1703;51.964;7.642;2022-08-03T03:45:44;21.10;99.90
3380;DHT22;1703;51.964;7.642;2022-08-03T03:48:11;21.10;99.90
3380;DHT22;1703;51.964;7.642;2022-08-03T03:50:38;21.10;99.90
3380;DHT22;1703;51.964;7.642;2022-08-03T03:53:08;21.10;99.90
3380;DHT22;1703;51.964;7.642;2022-08-03T03:55:35;21.10;99.90
3380;DHT22;1703;51.964;7.642;2022-08-03T03:58:02;21.10;99.90
3380;DHT22;1703;51.964;7.642;2022-08-03T04:00:30;21.20;99.90
3380;DHT22;1703;51.964;7.642;2022-08-03T04:02:57;21.20;99.90
3380;DHT22;1703;51.964;7.642;2022-08-03T04:05:24;21.20;99.90
3380;DHT22;1703;51.964;7.642;2022-08-03T04:08:11;21.20;99.90
3380;DHT22;1703;51.964;7.642;2022-08-03T04:11:06;21.20;99.90
3380;DHT22;1703;51.964;7.642;2022-08-03T04:13:37;21.20;99.90
3380;DHT22;1703;51.964;7.642;2022-08-03T04:16:09;21.20;99.90
3380;DHT22;1703;51.964;7.642;2022-08-03T04:18:38;21.30;99.90
3380;DHT22;1703;51.964;7.642;2022-08-03T04:21:08;21.30;99.90
3380;DHT22;1703;51.964;7.642;2022-08-03T04:23:39;21.30;99.90
3380;DHT22;1703;51.964;7.642;2022-08-03T04:26:08;21.30;99.90
3380;DHT22;1703;51.964;7.642;2022-08-03T04:28:38;21.30;99.90
3380;DHT22;1703;51.964;7.642;2022-08-03T04:31:08;21.30;99.90
3380;DHT22;1703;51.964;7.642;2022-08-03T04:33:36;21.30;99.90
3380;DHT22;1703;51.964;7.642;2022-08-03T04:36:06;21.30;99.90
3380;DHT22;1703;51.964;7.642;2022-08-03T04:38:36;21.30;99.90
3380;DHT22;1703;51.964;7.642;2022-08-03T04:41:04;21.40;99.90
3380;DHT22;1703;51.964;7.642;2022-08-03T04:43:32;21.30;99.90
3380;DHT22;1703;51.964;7.642;2022-08-03T04:45:59;21.30;99.90
3380;DHT22;1703;51.964;7.642;2022-08-03T04:48:28;21.30;99.90
3380;DHT22;1703;51.964;7.642;2022-08-03T04:50:55;21.40;99.90
3380;DHT22;1703;51.964;7.642;2022-08-03T04:53:22;21.40;99.90
3380;DHT22;1703;51.964;7.642;2022-08-03T04:55:49;21.40;99.90
3380;DHT22;1703;51.964;7.642;2022-08-03T04:58:16;21.40;99.90
3380;DHT22;1703;51.964;7.642;2022-08-03T05:00:42;21.40;99.90
3380;DHT22;1703;51.964;7.642;2022-08-03T05:03:10;21.40;99.90
3380;DHT22;1703;51.964;7.642;2022-08-03T05:05:38;21.50;99.90
3380;DHT22;1703;51.964;7.642;2022-08-03T05:08:05;21.50;99.90
3380;DHT22;1703;51.964;7.642;2022-08-03T05:10:31;21.50;99.90
3380;DHT22;1703;51.964;7.642;2022-08-03T05:12:58;21.50;99.90
3380;DHT22;1703;51.964;7.642;2022-08-03T05:15:25;21.50;99.90
3380;DHT22;1703;51.964;7.642;2022-08-03T05:17:52;21.50;99.90
3380;DHT22;1703;51.964;7.642;2022-08-03T05:20:19;21.60;99.90
3380;DHT22;1703;51.964;7.642;2022-08-03T05:22:47;21.60;99.90
3380;DHT22;1703;51.964;7.642;2022-08-03T05:25:14;21.60;99.90
3380;DHT22;1703;51.964;7.642;2022-08-03T05:27:41;21.70;99.90
3380;DHT22;1703;51.964;7.642;2022-08-03T05:30:08;21.70;99.90
3380;DHT22;1703;51.964;7.642;2022-08-03T05:32:35;21.70;99.90
3380;DHT22;1703;51.964;7.642;2022-08-03T05:35:02;21.80;99.90
3380;DHT22;1703;51.964;7.642;2022-08-03T05:37:29;21.80;99.90
3380;DHT22;1703;51.964;7.642;2022-08-03T05:39:57;21.80;99.90
3380;DHT22;1703;51.964;7.642;2022-08-03T05:42:24;21.90;99.90
3380;DHT22;1703;51.964;7.642;2022-08-03T05:44:50;22.00;99.90
3380;DHT22;1703;51.964;7.642;2022-08-03T05:47:17;22.00;99.90
3380;DHT22;1703;51.964;7.642;2022-08-03T05:49:44;22.10;99.90
3380;DHT22;1703;51.964;7.642;2022-08-03T05:52:11;22.10;99.90
3380;DHT22;1703;51.964;7.642;2022-08-03T05:54:38;22.10;99.90
3380;DHT22;1703;51.964;7.642;2022-08-03T05:57:06;22.10;99.90
3380;DHT22;1703;51.964;7.642;2022-08-03T05:59:33;22.20;99.90
3380;DHT22;1703;51.964;7.642;2022-08-03T06:01:59;22.30;99.90
3380;DHT22;1703;51.964;7.642;2022-08-03T06:04:26;22.30;99.90
3380;DHT22;1703;51.964;7.642;2022-08-03T06:06:53;22.30;99.90
3380;DHT22;1703;51.964;7.642;2022-08-03T06:09:20;22.40;99.90
3380;DHT22;1703;51.964;7.642;2022-08-03T06:11:46;22.30;99.90
3380;DHT22;1703;51.964;7.642;2022-08-03T06:14:14;22.40;99.90
3380;DHT22;1703;51.964;7.642;2022-08-03T06:16:41;22.40;99.90
3380;DHT22;1703;51.964;7.642;2022-08-03T06:19:08;22.40;99.90
3380;DHT22;1703;51.964;7.642;2022-08-03T06:21:35;22.40;99.90
3380;DHT22;1703;51.964;7.642;2022-08-03T06:24:01;22.50;99.90
3380;DHT22;1703;51.964;7.642;2022-08-03T06:26:28;22.60;99.90
3380;DHT22;1703;51.964;7.642;2022-08-03T06:28:55;22.60;99.90
3380;DHT22;1703;51.964;7.642;2022-08-03T06:31:25;22.70;99.90
3380;DHT22;1703;51.964;7.642;2022-08-03T06:33:54;22.70;99.90
3380;DHT22;1703;51.964;7.642;2022-08-03T06:36:20;22.90;99.90
3380;DHT22;1703;51.964;7.642;2022-08-03T06:38:47;22.90;99.90
3380;DHT22;1703;51.964;7.642;2022-08-03T06:41:14;22.90;99.90
3380;DHT22;1703;51.964;7.642;2022-08-03T06:43:41;22.90;99.90
3380;DHT22;1703;51.964;7.642;2022-08-03T06:46:08;23.00;99.90
3380;DHT22;1703;51.964;7.642;2022-08-03T06:48:36;23.00;99.90
3380;DHT22;1703;51.964;7.642;2022-08-03T06:51:03;23.10;99.90
3380;DHT22;1703;51.964;7.642;2022-08-03T06:53:30;23.10;99.90
3380;DHT22;1703;51.964;7.642;2022-08-03T06:55:57;23.20;99.90
3380;DHT22;1703;51.964;7.642;2022-08-03T06:58:23;23.20;99.90
3380;DHT22;1703;51.964;7.642;2022-08-03T07:00:50;23.30;99.90
3380;DHT22;1703;51.964;7.642;2022-08-03T07:03:17;23.30;99.90
3380;DHT22;1703;51.964;7.642;2022-08-03T07:05:46;23.40;99.90
3380;DHT22;1703;51.964;7.642;2022-08-03T07:08:14;23.50;99.90
3380;DHT22;1703;51.964;7.642;2022-08-03T07:10:40;23.50;99.90
3380;DHT22;1703;51.964;7.642;2022-08-03T07:13:07;23.60;99.90
3380;DHT22;1703;51.964;7.642;2022-08-03T07:15:34;23.60;99.90
3380;DHT22;1703;51.964;7.642;2022-08-03T07:18:01;23.60;99.90
3380;DHT22;1703;51.964;7.642;2022-08-03T07:20:28;23.70;99.90
3380;DHT22;1703;51.964;7.642;2022-08-03T07:22:56;23.80;99.90
3380;DHT22;1703;51.964;7.642;2022-08-03T07:25:24;23.80;99.90
3380;DHT22;1703;51.964;7.642;2022-08-03T07:27:51;23.80;99.90
3380;DHT22;1703;51.964;7.642;2022-08-03T07:30:18;23.90;99.90
3380;DHT22;1703;51.964;7.642;2022-08-03T07:32:46;24.00;99.90
3380;DHT22;1703;51.964;7.642;2022-08-03T07:35:12;24.00;99.90
3380;DHT22;1703;51.964;7.642;2022-08-03T07:37:39;24.10;99.90
3380;DHT22;1703;51.964;7.642;2022-08-03T07:40:08;24.10;99.90
3380;DHT22;1703;51.964;7.642;2022-08-03T07:42:35;24.20;99.90
3380;DHT22;1703;51.964;7.642;2022-08-03T07:45:01;24.30;99.90
3380;DHT22;1703;51.964;7.642;2022-08-03T07:47:30;24.30;99.90
3380;DHT22;1703;51.964;7.642;2022-08-03T07:49:58;24.50;99.90
3380;DHT22;1703;51.964;7.642;2022-08-03T07:52:25;24.50;99.90
3380;DHT22;1703;51.964;7.642;2022-08-03T07:55:11;24.60;99.90
3380;DHT22;1703;51.964;7.642;2022-08-03T07:57:37;24.70;99.90
3380;DHT22;1703;51.964;7.642;2022-08-03T08:00:06;24.80;99.90
3380;DHT22;1703;51.964;7.642;2022-08-03T08:02:40;24.80;99.90
3380;DHT22;1703;51.964;7.642;2022-08-03T08:05:08;24.90;99.90
3380;DHT22;1703;51.964;7.642;2022-08-03T08:07:35;25.00;99.90
3380;DHT22;1703;51.964;7.642;2022-08-03T08:10:03;25.10;99.90
3380;DHT22;1703;51.964;7.642;2022-08-03T08:12:32;25.20;99.90
3380;DHT22;1703;51.964;7.642;2022-08-03T08:14:58;25.20;99.90
3380;DHT22;1703;51.964;7.642;2022-08-03T08:17:25;25.30;99.90
3380;DHT22;1703;51.964;7.642;2022-08-03T08:19:52;25.30;99.90
3380;DHT22;1703;51.964;7.642;2022-08-03T08:22:19;25.40;99.90
3380;DHT22;1703;51.964;7.642;2022-08-03T08:24:46;25.60;99.90
3380;DHT22;1703;51.964;7.642;2022-08-03T08:27:13;25.70;99.90
3380;DHT22;1703;51.964;7.642;2022-08-03T08:29:41;25.80;99.90
3380;DHT22;1703;51.964;7.642;2022-08-03T08:32:08;25.90;99.90
3380;DHT22;1703;51.964;7.642;2022-08-03T08:34:35;25.90;99.90
3380;DHT22;1703;51.964;7.642;2022-08-03T08:37:02;26.00;99.90
3380;DHT22;1703;51.964;7.642;2022-08-03T08:39:29;26.20;99.90
3380;DHT22;1703;51.964;7.642;2022-08-03T08:41:56;26.40;99.90
3380;DHT22;1703;51.964;7.642;2022-08-03T08:44:26;26.50;99.90
3380;DHT22;1703;51.964;7.642;2022-08-03T08:46:56;26.40;99.90
3380;DHT22;1703;51.964;7.642;2022-08-03T08:49:26;26.50;99.90
3380;DHT22;1703;51.964;7.642;2022-08-03T08:51:54;26.40;99.90
3380;DHT22;1703;51.964;7.642;2022-08-03T08:54:22;26.50;99.90
3380;DHT22;1703;51.964;7.642;2022-08-03T08:56:50;26.60;99.90
3380;DHT22;1703;51.964;7.642;2022-08-03T08:59:18;26.60;99.90
3380;DHT22;1703;51.964;7.642;2022-08-03T09:01:45;26.50;99.90
3380;DHT22;1703;51.964;7.642;2022-08-03T09:04:14;26.50;99.90
3380;DHT22;1703;51.964;7.642;2022-08-03T09:06:40;26.50;99.90
3380;DHT22;1703;51.964;7.642;2022-08-03T09:09:07;26.40;99.90
3380;DHT22;1703;51.964;7.642;2022-08-03T09:11:34;26.40;99.90
3380;DHT22;1703;51.964;7.642;2022-08-03T09:14:01;26.40;99.90
3380;DHT22;1703;51.964;7.642;2022-08-03T09:16:32;26.40;99.90
3380;DHT22;1703;51.964;7.642;2022-08-03T09:19:11;26.40;99.90
3380;DHT22;1703;51.964;7.642;2022-08-03T09:21:41;26.40;99.90
3380;DHT22;1703;51.964;7.642;2022-08-03T09:24:10;26.40;99.90
3380;DHT22;1703;51.964;7.642;2022-08-03T09:26:37;26.50;99.90
3380;DHT22;1703;51.964;7.642;2022-08-03T09:29:07;26.60;99.90
3380;DHT22;1703;51.964;7.642;2022-08-03T09:31:35;26.60;99.90
3380;DHT22;1703;51.964;7.642;2022-08-03T09:34:05;26.70;99.90
3380;DHT22;1703;51.964;7.642;2022-08-03T09:36:41;26.90;99.90
3380;DHT22;1703;51.964;7.642;2022-08-03T09:39:10;26.90;99.90
3380;DHT22;1703;51.964;7.642;2022-08-03T09:41:38;26.90;99.90
3380;DHT22;1703;51.964;7.642;2022-08-03T09:44:05;27.00;99.90
3380;DHT22;1703;51.964;7.642;2022-08-03T09:46:47;27.00;99.90
3380;DHT22;1703;51.964;7.642;2022-08-03T09:49:13;27.00;99.90
3380;DHT22;1703;51.964;7.642;2022-08-03T09:51:41;27.10;99.90
3380;DHT22;1703;51.964;7.642;2022-08-03T09:54:09;27.00;99.90
3380;DHT22;1703;51.964;7.642;2022-08-03T09:56:40;27.00;99.90
3380;DHT22;1703;51.964;7.642;2022-08-03T09:59:08;27.00;99.90
3380;DHT22;1703;51.964;7.642;2022-08-03T10:01:35;27.00;99.90
3380;DHT22;1703;51.964;7.642;2022-08-03T10:04:04;27.00;99.90
3380;DHT22;1703;51.964;7.642;2022-08-03T10:06:31;27.00;99.90
3380;DHT22;1703;51.964;7.642;2022-08-03T10:09:07;27.00;99.90
3380;DHT22;1703;51.964;7.642;2022-08-03T10:11:34;27.10;99.90
3380;DHT22;1703;51.964;7.642;2022-08-03T10:14:05;27.10;99.90
3380;DHT22;1703;51.964;7.642;2022-08-03T10:16:34;27.10;99.90
3380;DHT22;1703;51.964;7.642;2022-08-03T10:19:02;27.10;99.90
3380;DHT22;1703;51.964;7.642;2022-08-03T10:21:32;27.10;99.90
3380;DHT22;1703;51.964;7.642;2022-08-03T10:24:02;27.10;99.90
3380;DHT22;1703;51.964;7.642;2022-08-03T10:26:32;27.10;99.90
3380;DHT22;1703;51.964;7.642;2022-08-03T10:29:02;27.20;99.90
3380;DHT22;1703;51.964;7.642;2022-08-03T10:31:34;27.20;99.90
3380;DHT22;1703;51.964;7.642;2022-08-03T10:34:04;27.20;99.90
3380;DHT22;1703;51.964;7.642;2022-08-03T10:36:32;27.30;99.90
3380;DHT22;1703;51.964;7.642;2022-08-03T10:39:03;27.50;99.90
3380;DHT22;1703;51.964;7.642;2022-08-03T10:41:34;27.60;99.90
3380;DHT22;1703;51.964;7.642;2022-08-03T10:44:04;27.70;99.90
3380;DHT22;1703;51.964;7.642;2022-08-03T10:46:32;27.70;99.90
3380;DHT22;1703;51.964;7.642;2022-08-03T10:49:00;27.70;99.90
3380;DHT22;1703;51.964;7.642;2022-08-03T10:51:27;27.80;99.90
3380;DHT22;1703;51.964;7.642;2022-08-03T10:53:56;27.80;99.90
3380;DHT22;1703;51.964;7.642;2022-08-03T10:56:40;27.90;99.90
3380;DHT22;1703;51.964;7.642;2022-08-03T10:59:56;28.00;99.90
3380;DHT22;1703;51.964;7.642;2022-08-03T11:03:05;28.00;99.90
3380;DHT22;1703;51.964;7.642;2022-08-03T11:05:35;27.90;99.90
3380;DHT22;1703;51.964;7.642;2022-08-03T11:08:28;28.00;99.90
3380;DHT22;1703;51.964;7.642;2022-08-03T11:10:58;28.20;99.90
3380;DHT22;1703;51.964;7.642;2022-08-03T11:13:29;28.40;99.90
3380;DHT22;1703;51.964;7.642;2022-08-03T11:16:02;28.30;99.90
3380;DHT22;1703;51.964;7.642;2022-08-03T11:18:29;28.30;99.90
3380;DHT22;1703;51.964;7.642;2022-08-03T11:20:57;28.30;99.90
3380;DHT22;1703;51.964;7.642;2022-08-03T11:23:45;28.40;99.90
3380;DHT22;1703;51.964;7.642;2022-08-03T11:26:14;28.30;99.90
3380;DHT22;1703;51.964;7.642;2022-08-03T11:28:44;28.30;99.90
3380;DHT22;1703;51.964;7.642;2022-08-03T11:34:21;28.40;99.90
3380;DHT22;1703;51.964;7.642;2022-08-03T11:37:21;28.40;99.90
3380;DHT22;1703;51.964;7.642;2022-08-03T11:39:52;28.40;99.90
3380;DHT22;1703;51.964;7.642;2022-08-03T11:42:38;28.50;99.90
3380;DHT22;1703;51.964;7.642;2022-08-03T11:45:07;28.60;99.90
3380;DHT22;1703;51.964;7.642;2022-08-03T11:47:37;28.70;99.90
3380;DHT22;1703;51.964;7.642;2022-08-03T11:50:05;28.60;99.90
3380;DHT22;1703;51.964;7.642;2022-08-03T11:52:39;28.70;99.90
3380;DHT22;1703;51.964;7.642;2022-08-03T11:55:11;28.80;99.90
3380;DHT22;1703;51.964;7.642;2022-08-03T11:57:38;28.90;99.90
3380;DHT22;1703;51.964;7.642;2022-08-03T12:00:26;29.00;99.90
3380;DHT22;1703;51.964;7.642;2022-08-03T12:02:59;29.10;99.90
3380;DHT22;1703;51.964;7.642;2022-08-03T12:05:37;29.10;99.90
3380;DHT22;1703;51.964;7.642;2022-08-03T12:08:05;29.10;99.90
3380;DHT22;1703;51.964;7.642;2022-08-03T12:10:32;29.30;99.90
3380;DHT22;1703;51.964;7.642;2022-08-03T12:13:00;29.30;99.90
3380;DHT22;1703;51.964;7.642;2022-08-03T12:15:32;29.40;99.90
3380;DHT22;1703;51.964;7.642;2022-08-03T12:17:59;29.50;99.90
3380;DHT22;1703;51.964;7.642;2022-08-03T12:20:28;29.50;99.90
3380;DHT22;1703;51.964;7.642;2022-08-03T12:23:01;29.50;99.90
3380;DHT22;1703;51.964;7.642;2022-08-03T12:25:28;29.60;99.90
3380;DHT22;1703;51.964;7.642;2022-08-03T12:28:07;29.70;99.90
3380;DHT22;1703;51.964;7.642;2022-08-03T12:30:36;29.80;99.90
3380;DHT22;1703;51.964;7.642;2022-08-03T12:33:14;29.80;99.90
3380;DHT22;1703;51.964;7.642;2022-08-03T12:35:40;29.70;99.90
3380;DHT22;1703;51.964;7.642;2022-08-03T12:38:07;29.80;99.90
3380;DHT22;1703;51.964;7.642;2022-08-03T12:40:35;29.80;99.90
3380;DHT22;1703;51.964;7.642;2022-08-03T12:43:10;29.90;99.90
3380;DHT22;1703;51.964;7.642;2022-08-03T12:45:39;29.80;99.90
3380;DHT22;1703;51.964;7.642;2022-08-03T12:48:09;29.90;99.90
3380;DHT22;1703;51.964;7.642;2022-08-03T12:50:37;29.80;99.90
3380;DHT22;1703;51.964;7.642;2022-08-03T12:53:08;29.90;99.90
3380;DHT22;1703;51.964;7.642;2022-08-03T12:55:36;29.90;99.90
3380;DHT22;1703;51.964;7.642;2022-08-03T12:58:05;30.10;99.90
3380;DHT22;1703;51.964;7.642;2022-08-03T13:00:32;30.20;99.90
3380;DHT22;1703;51.964;7.642;2022-08-03T13:03:02;30.30;99.90
3380;DHT22;1703;51.964;7.642;2022-08-03T13:05:31;30.20;99.90
3380;DHT22;1703;51.964;7.642;2022-08-03T13:07:58;30.20;99.90
3380;DHT22;1703;51.964;7.642;2022-08-03T13:10:29;30.20;99.90
3380;DHT22;1703;51.964;7.642;2022-08-03T13:12:56;30.20;99.90
3380;DHT22;1703;51.964;7.642;2022-08-03T13:15:25;30.30;99.90
3380;DHT22;1703;51.964;7.642;2022-08-03T13:17:53;30.30;99.90
3380;DHT22;1703;51.964;7.642;2022-08-03T13:20:21;30.50;99.90
3380;DHT22;1703;51.964;7.642;2022-08-03T13:22:48;30.60;99.90
3380;DHT22;1703;51.964;7.642;2022-08-03T13:25:15;30.60;99.90
3380;DHT22;1703;51.964;7.642;2022-08-03T13:27:42;30.60;99.90
3380;DHT22;1703;51.964;7.642;2022-08-03T13:30:09;30.70;99.90
3380;DHT22;1703;51.964;7.642;2022-08-03T13:32:36;30.80;99.90
3380;DHT22;1703;51.964;7.642;2022-08-03T13:35:04;31.30;99.90
3380;DHT22;1703;51.964;7.642;2022-08-03T13:37:32;32.30;99.90
3380;DHT22;1703;51.964;7.642;2022-08-03T13:39:59;33.00;99.90
3380;DHT22;1703;51.964;7.642;2022-08-03T13:42:28;33.30;99.90
3380;DHT22;1703;51.964;7.642;2022-08-03T13:44:55;34.40;99.90
3380;DHT22;1703;51.964;7.642;2022-08-03T13:47:22;35.80;99.90
3380;DHT22;1703;51.964;7.642;2022-08-03T13:49:48;37.10;99.50
3380;DHT22;1703;51.964;7.642;2022-08-03T13:52:17;37.30;96.90
3380;DHT22;1703;51.964;7.642;2022-08-03T13:54:45;37.30;94.00
3380;DHT22;1703;51.964;7.642;2022-08-03T13:57:12;38.00;92.90
3380;DHT22;1703;51.964;7.642;2022-08-03T13:59:39;37.40;90.20
3380;DHT22;1703;51.964;7.642;2022-08-03T14:02:06;36.50;90.30
3380;DHT22;1703;51.964;7.642;2022-08-03T14:04:33;35.70;91.30
3380;DHT22;1703;51.964;7.642;2022-08-03T14:07:00;35.20;92.80
3380;DHT22;1703;51.964;7.642;2022-08-03T14:09:26;34.70;93.20
3380;DHT22;1703;51.964;7.642;2022-08-03T14:11:55;35.00;94.10
3380;DHT22;1703;51.964;7.642;2022-08-03T14:14:21;35.10;92.50
3380;DHT22;1703;51.964;7.642;2022-08-03T14:16:48;34.80;93.30
3380;DHT22;1703;51.964;7.642;2022-08-03T14:19:15;34.70;92.90
3380;DHT22;1703;51.964;7.642;2022-08-03T14:21:42;34.80;93.40
3380;DHT22;1703;51.964;7.642;2022-08-03T14:24:09;35.20;93.20
3380;DHT22;1703;51.964;7.642;2022-08-03T14:26:36;36.20;91.70
3380;DHT22;1703;51.964;7.642;2022-08-03T14:29:04;37.20;90.30
3380;DHT22;1703;51.964;7.642;2022-08-03T14:31:31;37.90;86.90
3380;DHT22;1703;51.964;7.642;2022-08-03T14:33:58;38.20;82.10
3380;DHT22;1703;51.964;7.642;2022-08-03T14:36:24;38.20;78.90
3380;DHT22;1703;51.964;7.642;2022-08-03T14:38:51;37.50;78.80
3380;DHT22;1703;51.964;7.642;2022-08-03T14:41:18;37.00;79.10
3380;DHT22;1703;51.964;7.642;2022-08-03T14:43:45;36.70;80.60
3380;DHT22;1703;51.964;7.642;2022-08-03T14:46:13;36.90;81.00
3380;DHT22;1703;51.964;7.642;2022-08-03T14:48:40;37.20;80.10
3380;DHT22;1703;51.964;7.642;2022-08-03T14:51:06;36.80;79.70
3380;DHT22;1703;51.964;7.642;2022-08-03T14:53:33;36.50;80.10
3380;DHT22;1703;51.964;7.642;2022-08-03T14:56:00;36.10;81.80
3380;DHT22;1703;51.964;7.642;2022-08-03T14:58:27;35.40;82.40
3380;DHT22;1703;51.964;7.642;2022-08-03T15:00:54;34.90;83.30
3380;DHT22;1703;51.964;7.642;2022-08-03T15:03:23;34.10;85.80
3380;DHT22;1703;51.964;7.642;2022-08-03T15:05:51;33.80;88.70
3380;DHT22;1703;51.964;7.642;2022-08-03T15:08:18;33.70;89.80
3380;DHT22;1703;51.964;7.642;2022-08-03T15:10:45;33.40;90.50
3380;DHT22;1703;51.964;7.642;2022-08-03T15:13:12;32.90;90.70
3380;DHT22;1703;51.964;7.642;2022-08-03T15:15:39;32.70;91.30
3380;DHT22;1703;51.964;7.642;2022-08-03T15:18:06;32.70;92.00
3380;DHT22;1703;51.964;7.642;2022-08-03T15:20:34;32.50;92.60
3380;DHT22;1703;51.964;7.642;2022-08-03T15:23:01;32.40;93.00
3380;DHT22;1703;51.964;7.642;2022-08-03T15:25:28;32.20;93.40
3380;DHT22;1703;51.964;7.642;2022-08-03T15:27:55;32.10;93.40
3380;DHT22;1703;51.964;7.642;2022-08-03T15:30:22;32.00;93.40
3380;DHT22;1703;51.964;7.642;2022-08-03T15:32:49;31.90;93.70
3380;DHT22;1703;51.964;7.642;2022-08-03T15:35:15;31.90;94.70
3380;DHT22;1703;51.964;7.642;2022-08-03T15:37:43;31.90;94.50
3380;DHT22;1703;51.964;7.642;2022-08-03T15:40:11;31.80;94.30
3380;DHT22;1703;51.964;7.642;2022-08-03T15:42:38;31.90;94.10
3380;DHT22;1703;51.964;7.642;2022-08-03T15:45:06;32.00;94.70
3380;DHT22;1703;51.964;7.642;2022-08-03T15:47:32;31.90;94.50
3380;DHT22;1703;51.964;7.642;2022-08-03T15:49:59;31.90;94.90
3380;DHT22;1703;51.964;7.642;2022-08-03T15:52:26;31.90;95.10
3380;DHT22;1703;51.964;7.642;2022-08-03T15:54:54;31.70;94.70
3380;DHT22;1703;51.964;7.642;2022-08-03T15:57:21;31.80;95.50
3380;DHT22;1703;51.964;7.642;2022-08-03T15:59:48;31.70;95.30
3380;DHT22;1703;51.964;7.642;2022-08-03T16:02:15;31.70;95.20
3380;DHT22;1703;51.964;7.642;2022-08-03T16:04:41;31.70;95.70
3380;DHT22;1703;51.964;7.642;2022-08-03T16:07:08;31.60;95.50
3380;DHT22;1703;51.964;7.642;2022-08-03T16:09:35;31.60;96.10
3380;DHT22;1703;51.964;7.642;2022-08-03T16:12:04;31.60;95.40
3380;DHT22;1703;51.964;7.642;2022-08-03T16:14:31;31.50;95.40
3380;DHT22;1703;51.964;7.642;2022-08-03T16:16:57;31.40;96.00
3380;DHT22;1703;51.964;7.642;2022-08-03T16:19:24;31.40;96.10
3380;DHT22;1703;51.964;7.642;2022-08-03T16:21:52;31.30;96.10